createdAt,value
2017-10-18T00:01:08.281Z,11.4
2017-10-18T00:02:20.202Z,11.38
2017-10-18T00:03:32.772Z,11.37
2017-10-18T00:04:45.292Z,11.38
2017-10-18T00:05:57.231Z,11.34
2017-10-18T00:07:09.784Z,11.37
2017-10-18T00:08:22.030Z,11.38
2017-10-18T00:09:33.950Z,11.33
2017-10-18T00:10:45.571Z,11.33
2017-10-18T00:11:58.144Z,11.25
2017-10-18T00:13:10.712Z,11.27
2017-10-18T00:14:22.983Z,11.27
2017-10-18T00:15:35.553Z,11.27
2017-10-18T00:16:47.800Z,11.25
2017-10-18T00:18:00.361Z,11.26
2017-10-18T00:19:12.615Z,11.23
2017-10-18T00:20:25.186Z,11.31
2017-10-18T00:21:37.431Z,11.25
2017-10-18T00:22:50.002Z,11.25
2017-10-18T00:24:02.573Z,11.22
2017-10-18T00:25:14.818Z,11.23
2017-10-18T00:26:27.064Z,11.22
2017-10-18T00:27:39.636Z,11.19
2017-10-18T00:28:51.881Z,11.25
2017-10-18T00:30:03.818Z,11.18
2017-10-18T00:31:15.747Z,11.13
2017-10-18T00:32:28.316Z,11.13
2017-10-18T00:33:40.888Z,11.12
2017-10-18T00:34:53.461Z,11.13
2017-10-18T00:36:05.381Z,11.19
2017-10-18T00:37:17.556Z,11.12
2017-10-18T00:38:29.813Z,11.13
2017-10-18T00:39:42.366Z,11.13
2017-10-18T00:40:54.937Z,11.07
2017-10-18T00:42:07.508Z,11.07
2017-10-18T00:43:19.452Z,11.05
2017-10-18T00:44:32.017Z,11.01
2017-10-18T00:45:44.569Z,11.08
2017-10-18T00:46:56.816Z,11.08
2017-10-18T00:48:09.078Z,11.01
2017-10-18T00:49:21.649Z,10.98
2017-10-18T00:50:34.201Z,11.12
2017-10-18T00:51:46.764Z,11.07
2017-10-18T00:52:59.011Z,11.01
2017-10-18T00:54:11.267Z,11.04
2017-10-18T00:55:23.516Z,11.02
2017-10-18T00:56:35.756Z,10.95
2017-10-18T00:57:48.021Z,11.04
2017-10-18T00:59:00.272Z,11.02
2017-10-18T01:00:12.842Z,10.92
2017-10-18T01:01:25.088Z,10.98
2017-10-18T01:02:37.666Z,11
2017-10-18T01:03:50.229Z,10.95
2017-10-18T01:05:02.476Z,10.94
2017-10-18T01:06:14.721Z,11
2017-10-18T01:07:27.291Z,10.95
2017-10-18T01:08:39.537Z,10.94
2017-10-18T01:09:52.033Z,10.86
2017-10-18T01:11:04.611Z,10.94
2017-10-18T01:12:17.174Z,10.98
2017-10-18T01:13:29.768Z,10.95
2017-10-18T01:14:42.340Z,10.83
2017-10-18T01:15:54.910Z,10.87
2017-10-18T01:17:07.481Z,10.87
2017-10-18T01:18:19.403Z,10.86
2017-10-18T01:19:31.649Z,10.84
2017-10-18T01:20:44.218Z,10.83
2017-10-18T01:21:56.163Z,10.82
2017-10-18T01:23:08.734Z,10.95
2017-10-18T01:24:20.997Z,10.8
2017-10-18T01:25:33.551Z,10.76
2017-10-18T01:26:45.821Z,10.77
2017-10-18T01:27:57.746Z,10.86
2017-10-18T01:29:10.314Z,10.82
2017-10-18T01:30:22.580Z,10.86
2017-10-18T01:31:35.053Z,10.92
2017-10-18T01:32:47.299Z,10.83
2017-10-18T01:33:59.546Z,10.82
2017-10-18T01:35:11.808Z,10.84
2017-10-18T01:36:24.362Z,10.8
2017-10-18T01:37:36.634Z,10.84
2017-10-18T01:38:49.204Z,10.76
2017-10-18T01:40:01.774Z,10.84
2017-10-18T01:41:14.020Z,10.76
2017-10-18T01:42:26.239Z,10.75
2017-10-18T01:43:38.485Z,10.75
2017-10-18T01:44:50.738Z,10.8
2017-10-18T01:46:03.303Z,10.76
2017-10-18T01:47:14.597Z,10.77
2017-10-18T01:48:27.168Z,10.8
2017-10-18T01:49:39.114Z,10.72
2017-10-18T01:50:51.361Z,10.72
2017-10-18T01:52:03.605Z,10.75
2017-10-18T01:53:16.101Z,10.68
2017-10-18T01:54:28.671Z,10.69
2017-10-18T01:55:40.917Z,10.72
2017-10-18T01:56:53.487Z,10.67
2017-10-18T01:58:05.737Z,10.67
2017-10-18T01:59:18.303Z,10.68
2017-10-18T02:00:30.555Z,10.67
2017-10-18T02:01:43.121Z,10.67
2017-10-18T02:02:55.690Z,10.68
2017-10-18T02:04:08.262Z,10.68
2017-10-18T02:05:20.833Z,10.68
2017-10-18T02:06:33.406Z,10.72
2017-10-18T02:07:45.999Z,10.61
2017-10-18T02:08:58.246Z,10.65
2017-10-18T02:10:10.490Z,10.69
2017-10-18T02:11:23.061Z,10.59
2017-10-18T02:12:35.306Z,10.55
2017-10-18T02:13:47.554Z,10.61
2017-10-18T02:15:00.122Z,10.51
2017-10-18T02:16:12.693Z,10.57
2017-10-18T02:17:25.265Z,10.59
2017-10-18T02:18:37.838Z,10.55
2017-10-18T02:19:50.403Z,10.58
2017-10-18T02:21:02.651Z,10.53
2017-10-18T02:22:15.221Z,10.49
2017-10-18T02:23:27.834Z,10.46
2017-10-18T02:24:40.091Z,10.49
2017-10-18T02:25:52.007Z,10.57
2017-10-18T02:27:04.256Z,10.51
2017-10-18T02:28:16.831Z,10.49
2017-10-18T02:29:28.446Z,10.55
2017-10-18T02:30:41.015Z,10.49
2017-10-18T02:31:53.587Z,10.51
2017-10-18T02:33:05.531Z,10.49
2017-10-18T02:34:17.777Z,10.48
2017-10-18T02:35:30.324Z,10.57
2017-10-18T02:36:42.261Z,10.49
2017-10-18T02:37:54.833Z,10.49
2017-10-18T02:39:07.409Z,10.53
2017-10-18T02:40:19.632Z,10.48
2017-10-18T02:41:32.201Z,10.51
2017-10-18T02:42:44.774Z,10.49
2017-10-18T02:43:57.037Z,10.57
2017-10-18T02:45:09.617Z,10.58
2017-10-18T02:46:22.202Z,10.53
2017-10-18T02:47:34.772Z,10.42
2017-10-18T02:48:47.325Z,10.42
2017-10-18T02:49:59.565Z,10.53
2017-10-18T02:51:12.115Z,10.46
2017-10-18T02:52:24.366Z,10.49
2017-10-18T02:53:37.185Z,10.38
2017-10-18T02:54:49.753Z,10.42
2017-10-18T02:56:02.325Z,10.45
2017-10-18T02:57:14.570Z,10.48
2017-10-18T02:58:27.416Z,10.39
2017-10-18T02:59:40.012Z,10.39
2017-10-18T03:00:52.581Z,10.41
2017-10-18T03:02:05.146Z,10.42
2017-10-18T03:03:17.400Z,10.41
2017-10-18T03:04:29.321Z,10.45
2017-10-18T03:05:41.889Z,10.45
2017-10-18T03:06:54.134Z,10.43
2017-10-18T03:08:06.356Z,10.42
2017-10-18T03:09:18.276Z,10.49
2017-10-18T03:10:30.523Z,10.39
2017-10-18T03:11:42.767Z,10.46
2017-10-18T03:12:55.338Z,10.42
2017-10-18T03:14:07.910Z,10.46
2017-10-18T03:15:20.155Z,10.42
2017-10-18T03:16:32.725Z,10.49
2017-10-18T03:17:45.295Z,10.46
2017-10-18T03:18:57.845Z,10.49
2017-10-18T03:20:10.729Z,10.42
2017-10-18T03:21:22.975Z,10.42
2017-10-18T03:22:35.530Z,10.41
2017-10-18T03:23:48.104Z,10.51
2017-10-18T03:25:00.670Z,10.48
2017-10-18T03:26:12.916Z,10.53
2017-10-18T03:27:24.837Z,10.55
2017-10-18T03:28:37.432Z,10.58
2017-10-18T03:29:50.020Z,10.59
2017-10-18T03:31:02.850Z,10.62
2017-10-18T03:32:15.120Z,10.71
2017-10-18T03:33:27.690Z,10.68
2017-10-18T03:34:40.260Z,10.72
2017-10-18T03:35:52.831Z,10.59
2017-10-18T03:37:05.402Z,10.62
2017-10-18T03:38:17.972Z,10.65
2017-10-18T03:39:30.543Z,10.67
2017-10-18T03:40:43.117Z,10.68
2017-10-18T03:41:55.934Z,10.69
2017-10-18T03:43:08.505Z,10.67
2017-10-18T03:44:21.076Z,10.69
2017-10-18T03:45:33.646Z,10.69
2017-10-18T03:46:46.208Z,10.72
2017-10-18T03:47:58.787Z,10.77
2017-10-18T03:49:10.735Z,10.72
2017-10-18T03:50:22.979Z,10.75
2017-10-18T03:51:35.247Z,10.8
2017-10-18T03:52:47.837Z,10.67
2017-10-18T03:54:00.415Z,10.71
2017-10-18T03:55:12.985Z,10.77
2017-10-18T03:56:24.906Z,10.71
2017-10-18T03:57:37.477Z,10.79
2017-10-18T03:58:50.048Z,10.67
2017-10-18T04:00:02.619Z,10.67
2017-10-18T04:01:14.863Z,10.8
2017-10-18T04:02:27.434Z,10.76
2017-10-18T04:03:39.631Z,10.75
2017-10-18T04:04:51.551Z,10.71
2017-10-18T04:06:03.796Z,10.79
2017-10-18T04:07:16.367Z,10.72
2017-10-18T04:08:28.612Z,10.76
2017-10-18T04:09:41.208Z,10.72
2017-10-18T04:10:53.780Z,10.75
2017-10-18T04:12:05.702Z,10.69
2017-10-18T04:13:17.641Z,10.75
2017-10-18T04:14:30.194Z,10.76
2017-10-18T04:15:42.762Z,10.75
2017-10-18T04:16:55.333Z,10.67
2017-10-18T04:18:07.929Z,10.68
2017-10-18T04:19:20.205Z,10.68
2017-10-18T04:20:32.469Z,10.65
2017-10-18T04:21:44.715Z,10.72
2017-10-18T04:22:56.960Z,10.61
2017-10-18T04:24:09.207Z,10.65
2017-10-18T04:25:21.794Z,10.59
2017-10-18T04:26:34.347Z,10.67
2017-10-18T04:27:46.919Z,10.58
2017-10-18T04:28:59.463Z,10.67
2017-10-18T04:30:12.035Z,10.59
2017-10-18T04:31:24.604Z,10.59
2017-10-18T04:32:37.175Z,10.55
2017-10-18T04:33:49.097Z,10.53
2017-10-18T04:35:01.342Z,10.49
2017-10-18T04:36:13.913Z,10.51
2017-10-18T04:37:26.158Z,10.49
2017-10-18T04:38:38.405Z,10.45
2017-10-18T04:39:50.654Z,10.48
2017-10-18T04:41:02.921Z,10.49
2017-10-18T04:42:15.192Z,10.41
2017-10-18T04:43:27.763Z,10.42
2017-10-18T04:44:40.008Z,10.42
2017-10-18T04:45:52.579Z,10.48
2017-10-18T04:47:05.180Z,10.42
2017-10-18T04:48:17.744Z,10.49
2017-10-18T04:49:30.317Z,10.38
2017-10-18T04:50:41.910Z,10.42
2017-10-18T04:51:54.485Z,10.43
2017-10-18T04:53:07.052Z,10.39
2017-10-18T04:54:19.298Z,10.31
2017-10-18T04:55:31.869Z,10.33
2017-10-18T04:56:44.139Z,10.34
2017-10-18T04:57:56.634Z,10.31
2017-10-18T04:59:08.880Z,10.42
2017-10-18T05:00:21.469Z,10.34
2017-10-18T05:01:33.397Z,10.3
2017-10-18T05:02:45.968Z,10.33
2017-10-18T05:03:58.213Z,10.34
2017-10-18T05:05:10.484Z,10.38
2017-10-18T05:06:23.055Z,10.33
2017-10-18T05:07:35.299Z,10.38
2017-10-18T05:08:47.871Z,10.27
2017-10-18T05:10:00.441Z,10.36
2017-10-18T05:11:12.387Z,10.31
2017-10-18T05:12:24.633Z,10.23
2017-10-18T05:13:36.878Z,10.34
2017-10-18T05:14:49.455Z,10.31
2017-10-18T05:16:01.711Z,10.24
2017-10-18T05:17:13.665Z,10.24
2017-10-18T05:18:25.588Z,10.27
2017-10-18T05:19:38.432Z,10.28
2017-10-18T05:20:51.003Z,10.28
2017-10-18T05:22:03.272Z,10.21
2017-10-18T05:23:15.542Z,10.12
2017-10-18T05:24:27.763Z,10.18
2017-10-18T05:25:40.327Z,10.15
2017-10-18T05:26:52.272Z,10.24
2017-10-18T05:28:04.850Z,10.23
2017-10-18T05:29:17.421Z,10.09
2017-10-18T05:30:29.685Z,10.24
2017-10-18T05:31:42.238Z,10.13
2017-10-18T05:32:54.809Z,10.09
2017-10-18T05:34:07.055Z,10.12
2017-10-18T05:35:19.301Z,10.1
2017-10-18T05:36:31.889Z,10.18
2017-10-18T05:37:44.466Z,10.12
2017-10-18T05:38:56.712Z,10.15
2017-10-18T05:40:09.283Z,10.17
2017-10-18T05:41:21.778Z,10.2
2017-10-18T05:42:34.033Z,10.23
2017-10-18T05:43:46.646Z,10.18
2017-10-18T05:44:59.240Z,10.17
2017-10-18T05:46:11.810Z,10.21
2017-10-18T05:47:24.381Z,10.2
2017-10-18T05:48:36.627Z,10.18
2017-10-18T05:49:49.172Z,10.24
2017-10-18T05:51:01.421Z,10.24
2017-10-18T05:52:13.362Z,10.27
2017-10-18T05:53:25.608Z,10.27
2017-10-18T05:54:37.856Z,10.25
2017-10-18T05:55:50.425Z,10.24
2017-10-18T05:57:02.996Z,10.3
2017-10-18T05:58:15.267Z,10.38
2017-10-18T05:59:27.512Z,10.38
2017-10-18T06:00:39.758Z,10.36
2017-10-18T06:01:52.328Z,10.39
2017-10-18T06:03:04.599Z,10.38
2017-10-18T06:04:16.870Z,10.31
2017-10-18T06:05:29.119Z,10.43
2017-10-18T06:06:41.686Z,10.41
2017-10-18T06:07:53.932Z,10.38
2017-10-18T06:09:05.870Z,10.42
2017-10-18T06:10:18.448Z,10.57
2017-10-18T06:11:30.695Z,10.53
2017-10-18T06:12:43.265Z,10.51
2017-10-18T06:13:55.840Z,10.53
2017-10-18T06:15:08.099Z,10.53
2017-10-18T06:16:20.676Z,10.59
2017-10-18T06:17:32.922Z,10.64
2017-10-18T06:18:45.167Z,10.67
2017-10-18T06:19:57.738Z,10.65
2017-10-18T06:21:09.985Z,10.76
2017-10-18T06:22:22.555Z,10.71
2017-10-18T06:23:34.799Z,10.76
2017-10-18T06:24:47.047Z,10.72
2017-10-18T06:25:58.966Z,10.87
2017-10-18T06:27:11.212Z,10.84
2017-10-18T06:28:23.787Z,10.86
2017-10-18T06:29:36.355Z,10.84
2017-10-18T06:30:48.928Z,10.97
2017-10-18T06:32:01.495Z,11
2017-10-18T06:33:13.415Z,11.02
2017-10-18T06:34:26.003Z,11.08
2017-10-18T06:35:38.583Z,11.05
2017-10-18T06:36:51.127Z,11.13
2017-10-18T06:38:03.390Z,11.16
2017-10-18T06:39:15.944Z,11.18
2017-10-18T06:40:28.515Z,11.23
2017-10-18T06:41:40.435Z,11.23
2017-10-18T06:42:53.005Z,11.33
2017-10-18T06:44:05.252Z,11.34
2017-10-18T06:45:17.821Z,11.37
2017-10-18T06:46:30.394Z,11.35
2017-10-18T06:47:42.981Z,11.44
2017-10-18T06:48:55.534Z,11.49
2017-10-18T06:50:07.480Z,11.45
2017-10-18T06:51:20.050Z,11.55
2017-10-18T06:52:32.295Z,11.55
2017-10-18T06:53:44.542Z,11.53
2017-10-18T06:54:56.468Z,11.62
2017-10-18T06:56:08.708Z,11.65
2017-10-18T06:57:21.207Z,11.67
2017-10-18T06:58:33.449Z,11.68
2017-10-18T06:59:45.695Z,11.78
2017-10-18T07:00:58.266Z,11.74
2017-10-18T07:02:10.837Z,11.83
2017-10-18T07:03:23.408Z,11.83
2017-10-18T07:04:35.995Z,11.81
2017-10-18T07:05:48.548Z,11.88
2017-10-18T07:07:01.126Z,11.83
2017-10-18T07:08:13.697Z,11.86
2017-10-18T07:09:26.285Z,11.89
2017-10-18T07:10:38.862Z,11.97
2017-10-18T07:11:51.453Z,12.02
2017-10-18T07:13:03.394Z,12.02
2017-10-18T07:14:15.993Z,12
2017-10-18T07:15:28.280Z,12.03
2017-10-18T07:16:40.859Z,12.14
2017-10-18T07:17:53.430Z,12.08
2017-10-18T07:19:05.618Z,12.11
2017-10-18T07:20:17.872Z,12.18
2017-10-18T07:21:30.445Z,12.18
2017-10-18T07:22:42.388Z,12.26
2017-10-18T07:23:54.956Z,12.25
2017-10-18T07:25:06.904Z,12.3
2017-10-18T07:26:19.474Z,12.29
2017-10-18T07:27:32.045Z,12.26
2017-10-18T07:28:44.289Z,12.25
2017-10-18T07:29:56.539Z,12.28
2017-10-18T07:31:09.136Z,12.26
2017-10-18T07:32:21.706Z,12.4
2017-10-18T07:33:33.948Z,12.28
2017-10-18T07:34:46.517Z,12.33
2017-10-18T07:35:59.088Z,12.25
2017-10-18T07:37:11.336Z,12.28
2017-10-18T07:38:23.586Z,12.36
2017-10-18T07:39:36.150Z,12.39
2017-10-18T07:40:48.972Z,12.39
2017-10-18T07:42:01.541Z,12.44
2017-10-18T07:43:13.788Z,12.44
2017-10-18T07:44:26.359Z,12.4
2017-10-18T07:45:38.621Z,12.43
2017-10-18T07:46:51.174Z,12.54
2017-10-18T07:48:03.746Z,12.53
2017-10-18T07:49:16.315Z,12.57
2017-10-18T07:50:28.887Z,12.5
2017-10-18T07:51:40.832Z,12.69
2017-10-18T07:52:53.402Z,12.61
2017-10-18T07:54:05.649Z,12.66
2017-10-18T07:55:18.220Z,12.68
2017-10-18T07:56:30.140Z,12.69
2017-10-18T07:57:42.062Z,12.69
2017-10-18T07:58:54.306Z,12.76
2017-10-18T08:00:06.577Z,12.7
2017-10-18T08:01:18.498Z,12.73
2017-10-18T08:02:31.018Z,12.81
2017-10-18T08:03:42.939Z,12.83
2017-10-18T08:04:54.859Z,12.87
2017-10-18T08:06:07.408Z,12.99
2017-10-18T08:07:19.976Z,12.94
2017-10-18T08:08:32.548Z,12.98
2017-10-18T08:09:45.117Z,13.01
2017-10-18T08:10:57.380Z,13.03
2017-10-18T08:12:09.625Z,13.12
2017-10-18T08:13:22.407Z,13.19
2017-10-18T08:14:34.650Z,13.11
2017-10-18T08:15:47.219Z,13.19
2017-10-18T08:16:59.466Z,13.28
2017-10-18T08:18:12.043Z,13.23
2017-10-18T08:19:24.283Z,13.31
2017-10-18T08:20:35.882Z,13.31
2017-10-18T08:21:48.449Z,13.37
2017-10-18T08:23:01.018Z,13.45
2017-10-18T08:24:13.593Z,13.55
2017-10-18T08:25:26.162Z,13.54
2017-10-18T08:26:38.757Z,13.6
2017-10-18T08:27:51.328Z,13.65
2017-10-18T08:29:03.247Z,13.67
2017-10-18T08:30:15.494Z,13.65
2017-10-18T08:31:27.755Z,13.87
2017-10-18T08:32:40.335Z,13.78
2017-10-18T08:33:52.579Z,13.82
2017-10-18T08:35:05.176Z,13.94
2017-10-18T08:36:17.747Z,13.87
2017-10-18T08:37:29.993Z,13.95
2017-10-18T08:38:41.912Z,13.95
2017-10-18T08:39:54.163Z,14.03
2017-10-18T08:41:06.084Z,14.05
2017-10-18T08:42:18.332Z,14.08
2017-10-18T08:43:30.595Z,14.15
2017-10-18T08:44:43.166Z,14.28
2017-10-18T08:45:55.411Z,14.25
2017-10-18T08:47:07.658Z,14.28
2017-10-18T08:48:19.921Z,14.34
2017-10-18T08:49:31.851Z,14.33
2017-10-18T08:50:44.119Z,14.38
2017-10-18T08:51:56.690Z,14.44
2017-10-18T08:53:09.261Z,14.45
2017-10-18T08:54:21.532Z,14.45
2017-10-18T08:55:33.777Z,14.4
2017-10-18T08:56:46.372Z,14.52
2017-10-18T08:57:58.618Z,14.52
2017-10-18T08:59:10.563Z,14.56
2017-10-18T09:00:23.182Z,14.66
2017-10-18T09:01:35.429Z,14.63
2017-10-18T09:02:47.975Z,14.78
2017-10-18T09:04:00.221Z,14.79
2017-10-18T09:05:12.493Z,14.78
2017-10-18T09:06:24.113Z,14.9
2017-10-18T09:07:36.050Z,14.93
2017-10-18T09:08:48.305Z,14.93
2017-10-18T09:10:00.875Z,14.93
2017-10-18T09:11:12.473Z,15.05
2017-10-18T09:12:24.716Z,15.02
2017-10-18T09:13:36.312Z,15.05
2017-10-18T09:14:48.558Z,15.14
2017-10-18T09:16:01.128Z,15.17
2017-10-18T09:17:12.749Z,15.25
2017-10-18T09:18:25.254Z,15.33
2017-10-18T09:19:37.840Z,15.23
2017-10-18T09:20:50.103Z,15.33
2017-10-18T09:22:02.357Z,15.39
2017-10-18T09:23:14.310Z,15.37
2017-10-18T09:24:26.890Z,15.44
2017-10-18T09:25:39.144Z,15.54
2017-10-18T09:26:51.713Z,15.48
2017-10-18T09:28:03.959Z,15.65
2017-10-18T09:29:16.531Z,15.6
2017-10-18T09:30:28.482Z,15.69
2017-10-18T09:31:40.746Z,15.67
2017-10-18T09:32:53.316Z,15.75
2017-10-18T09:34:05.563Z,15.8
2017-10-18T09:35:17.184Z,15.84
2017-10-18T09:36:29.115Z,15.9
2017-10-18T09:37:41.701Z,15.83
2017-10-18T09:38:53.946Z,15.85
2017-10-18T09:40:05.871Z,15.91
2017-10-18T09:41:18.461Z,15.96
2017-10-18T09:42:31.033Z,16.06
2017-10-18T09:43:43.602Z,15.98
2017-10-18T09:44:55.849Z,16.06
2017-10-18T09:46:08.422Z,16.08
2017-10-18T09:47:20.990Z,16.06
2017-10-18T09:48:33.563Z,16.21
2017-10-18T09:49:46.143Z,16.09
2017-10-18T09:50:58.403Z,16.13
2017-10-18T09:52:10.674Z,16.22
2017-10-18T09:53:23.243Z,16.21
2017-10-18T09:54:35.859Z,16.28
2017-10-18T09:55:48.115Z,16.31
2017-10-18T09:57:00.680Z,16.31
2017-10-18T09:58:12.655Z,16.31
2017-10-18T09:59:24.920Z,16.31
2017-10-18T10:00:37.166Z,16.37
2017-10-18T10:01:49.412Z,16.28
2017-10-18T10:03:01.676Z,16.39
2017-10-18T10:04:14.253Z,16.41
2017-10-18T10:05:26.524Z,16.4
2017-10-18T10:06:39.113Z,16.41
2017-10-18T10:07:51.367Z,16.57
2017-10-18T10:09:03.936Z,16.5
2017-10-18T10:10:16.509Z,16.55
2017-10-18T10:11:28.770Z,16.64
2017-10-18T10:12:41.324Z,16.62
2017-10-18T10:13:53.895Z,16.61
2017-10-18T10:15:06.465Z,16.68
2017-10-18T10:16:18.710Z,16.69
2017-10-18T10:17:30.656Z,16.84
2017-10-18T10:18:43.252Z,16.86
2017-10-18T10:19:55.824Z,16.79
2017-10-18T10:21:08.394Z,16.89
2017-10-18T10:22:20.963Z,16.91
2017-10-18T10:23:33.538Z,16.95
2017-10-18T10:24:46.155Z,16.95
2017-10-18T10:25:58.400Z,17.04
2017-10-18T10:27:10.989Z,17.12
2017-10-18T10:28:23.243Z,17.09
2017-10-18T10:29:35.836Z,17.05
2017-10-18T10:30:48.085Z,17.12
2017-10-18T10:32:00.645Z,17.17
2017-10-18T10:33:12.918Z,17.2
2017-10-18T10:34:25.488Z,17.28
2017-10-18T10:35:38.066Z,17.31
2017-10-18T10:36:50.632Z,17.3
2017-10-18T10:38:02.908Z,17.42
2017-10-18T10:39:15.477Z,17.42
2017-10-18T10:40:27.399Z,17.41
2017-10-18T10:41:39.968Z,17.56
2017-10-18T10:42:52.540Z,17.54
2017-10-18T10:44:05.111Z,17.5
2017-10-18T10:45:17.706Z,17.56
2017-10-18T10:46:30.276Z,17.53
2017-10-18T10:47:42.196Z,17.59
2017-10-18T10:48:54.119Z,17.63
2017-10-18T10:50:06.370Z,17.75
2017-10-18T10:51:18.633Z,17.86
2017-10-18T10:52:30.881Z,17.82
2017-10-18T10:53:43.451Z,17.84
2017-10-18T10:54:56.025Z,17.88
2017-10-18T10:56:07.647Z,18.02
2017-10-18T10:57:19.587Z,18
2017-10-18T10:58:31.862Z,18.02
2017-10-18T10:59:44.104Z,18.03
2017-10-18T11:00:56.351Z,18.16
2017-10-18T11:02:08.937Z,18.15
2017-10-18T11:03:20.868Z,18.19
2017-10-18T11:04:32.787Z,18.27
2017-10-18T11:05:45.359Z,18.3
2017-10-18T11:06:57.946Z,18.18
2017-10-18T11:08:09.874Z,18.42
2017-10-18T11:09:22.119Z,18.26
2017-10-18T11:10:34.364Z,18.31
2017-10-18T11:11:46.928Z,18.34
2017-10-18T11:12:59.506Z,18.39
2017-10-18T11:14:11.752Z,18.41
2017-10-18T11:15:24.326Z,18.42
2017-10-18T11:16:36.894Z,18.42
2017-10-18T11:17:49.463Z,18.43
2017-10-18T11:19:01.733Z,18.49
2017-10-18T11:20:14.347Z,18.53
2017-10-18T11:21:26.924Z,18.53
2017-10-18T11:22:38.847Z,18.6
2017-10-18T11:23:51.092Z,18.63
2017-10-18T11:25:03.683Z,18.67
2017-10-18T11:26:15.910Z,18.66
2017-10-18T11:27:28.480Z,18.63
2017-10-18T11:28:40.723Z,18.64
2017-10-18T11:29:52.970Z,18.64
2017-10-18T11:31:05.227Z,18.74
2017-10-18T11:32:17.461Z,18.83
2017-10-18T11:33:30.031Z,18.83
2017-10-18T11:34:42.602Z,18.76
2017-10-18T11:35:54.848Z,18.74
2017-10-18T11:37:07.094Z,18.74
2017-10-18T11:38:19.357Z,18.86
2017-10-18T11:39:32.186Z,18.81
2017-10-18T11:40:44.132Z,18.83
2017-10-18T11:41:56.377Z,18.85
2017-10-18T11:43:08.639Z,18.86
2017-10-18T11:44:20.893Z,18.89
2017-10-18T11:45:32.837Z,18.89
2017-10-18T11:46:44.438Z,18.92
2017-10-18T11:47:56.379Z,18.91
2017-10-18T11:49:08.951Z,19
2017-10-18T11:50:21.197Z,18.97
2017-10-18T11:51:33.766Z,18.97
2017-10-18T11:52:45.716Z,18.96
2017-10-18T11:53:58.308Z,18.96
2017-10-18T11:55:10.230Z,18.94
2017-10-18T11:56:22.492Z,19.11
2017-10-18T11:57:35.070Z,19
2017-10-18T11:58:47.645Z,19.05
2017-10-18T12:00:00.229Z,19.01
2017-10-18T12:01:12.808Z,19.05
2017-10-18T12:02:25.370Z,19.07
2017-10-18T12:03:37.623Z,19.15
2017-10-18T12:04:49.870Z,19.08
2017-10-18T12:06:02.457Z,19.07
2017-10-18T12:07:14.393Z,18.98
2017-10-18T12:08:26.657Z,19.09
2017-10-18T12:09:38.903Z,19.15
2017-10-18T12:10:51.473Z,19.11
2017-10-18T12:12:04.045Z,19.15
2017-10-18T12:13:16.314Z,19.12
2017-10-18T12:14:28.884Z,19.11
2017-10-18T12:15:41.131Z,19.19
2017-10-18T12:16:53.701Z,19.23
2017-10-18T12:18:06.272Z,19.27
2017-10-18T12:19:18.885Z,19.24
2017-10-18T12:20:31.138Z,19.2
2017-10-18T12:21:43.707Z,19.23
2017-10-18T12:22:56.279Z,19.23
2017-10-18T12:24:08.850Z,19.23
2017-10-18T12:25:21.120Z,19.23
2017-10-18T12:26:33.092Z,19.2
2017-10-18T12:27:45.336Z,19.35
2017-10-18T12:28:57.283Z,19.27
2017-10-18T12:30:09.853Z,19.3
2017-10-18T12:31:22.491Z,19.24
2017-10-18T12:32:35.045Z,19.26
2017-10-18T12:33:47.658Z,19.24
2017-10-18T12:35:00.228Z,19.24
2017-10-18T12:36:12.156Z,19.27
2017-10-18T12:37:24.727Z,19.23
2017-10-18T12:38:37.303Z,19.29
2017-10-18T12:39:49.235Z,19.26
2017-10-18T12:41:01.483Z,19.26
2017-10-18T12:42:14.091Z,19.35
2017-10-18T12:43:26.679Z,19.3
2017-10-18T12:44:38.618Z,19.3
2017-10-18T12:45:51.190Z,19.37
2017-10-18T12:47:03.143Z,19.3
2017-10-18T12:48:15.389Z,19.32
2017-10-18T12:49:27.959Z,19.37
2017-10-18T12:50:40.229Z,19.32
2017-10-18T12:51:52.480Z,19.34
2017-10-18T12:53:04.393Z,19.37
2017-10-18T12:54:16.334Z,19.39
2017-10-18T12:55:28.287Z,19.38
2017-10-18T12:56:40.863Z,19.29
2017-10-18T12:57:53.446Z,19.37
2017-10-18T12:59:05.702Z,19.34
2017-10-18T13:00:18.287Z,19.38
2017-10-18T13:01:30.883Z,19.35
2017-10-18T13:02:43.460Z,19.39
2017-10-18T13:03:55.740Z,19.41
2017-10-18T13:05:08.002Z,19.37
2017-10-18T13:06:20.272Z,19.45
2017-10-18T13:07:32.543Z,19.41
2017-10-18T13:08:45.113Z,19.37
2017-10-18T13:09:57.034Z,19.37
2017-10-18T13:11:08.979Z,19.38
2017-10-18T13:12:20.901Z,19.27
2017-10-18T13:13:33.149Z,19.37
2017-10-18T13:14:45.092Z,19.32
2017-10-18T13:15:57.679Z,19.34
2017-10-18T13:17:09.608Z,19.24
2017-10-18T13:18:22.179Z,19.3
2017-10-18T13:19:34.425Z,19.37
2017-10-18T13:20:47.013Z,19.24
2017-10-18T13:21:58.958Z,19.29
2017-10-18T13:23:11.212Z,19.29
2017-10-18T13:24:23.159Z,19.3
2017-10-18T13:25:35.745Z,19.32
2017-10-18T13:26:47.999Z,19.27
2017-10-18T13:28:00.568Z,19.24
2017-10-18T13:29:13.141Z,19.23
2017-10-18T13:30:25.712Z,19.29
2017-10-18T13:31:37.957Z,19.26
2017-10-18T13:32:50.526Z,19.27
2017-10-18T13:34:02.774Z,19.27
2017-10-18T13:35:15.018Z,19.24
2017-10-18T13:36:27.614Z,19.23
2017-10-18T13:37:39.859Z,19.23
2017-10-18T13:38:52.431Z,19.24
2017-10-18T13:40:05.001Z,19.27
2017-10-18T13:41:16.946Z,19.27
2017-10-18T13:42:29.542Z,19.26
2017-10-18T13:43:41.813Z,19.22
2017-10-18T13:44:53.757Z,19.27
2017-10-18T13:46:05.730Z,19.24
2017-10-18T13:47:17.974Z,19.23
2017-10-18T13:48:30.238Z,19.26
2017-10-18T13:49:42.809Z,19.29
2017-10-18T13:50:55.379Z,19.29
2017-10-18T13:52:07.960Z,19.22
2017-10-18T13:53:20.521Z,19.29
2017-10-18T13:54:32.773Z,19.23
2017-10-18T13:55:44.725Z,19.22
2017-10-18T13:56:56.990Z,19.27
2017-10-18T13:58:08.961Z,19.15
2017-10-18T13:59:21.532Z,19.2
2017-10-18T14:00:34.369Z,19.11
2017-10-18T14:01:46.315Z,19.17
2017-10-18T14:02:58.886Z,19.12
2017-10-18T14:04:11.482Z,19.09
2017-10-18T14:05:24.052Z,19.15
2017-10-18T14:06:36.305Z,19.11
2017-10-18T14:07:48.250Z,19.07
2017-10-18T14:09:00.825Z,19.08
2017-10-18T14:10:13.117Z,19
2017-10-18T14:11:25.687Z,18.97
2017-10-18T14:12:38.259Z,18.96
2017-10-18T14:13:50.504Z,18.94
2017-10-18T14:15:02.767Z,18.91
2017-10-18T14:16:15.045Z,18.86
2017-10-18T14:17:27.616Z,18.89
2017-10-18T14:18:39.887Z,18.86
2017-10-18T14:19:51.836Z,18.82
2017-10-18T14:21:04.103Z,18.82
2017-10-18T14:22:16.378Z,18.81
2017-10-18T14:23:28.320Z,18.81
2017-10-18T14:24:40.589Z,18.81
2017-10-18T14:25:52.831Z,18.86
2017-10-18T14:27:05.398Z,18.89
2017-10-18T14:28:18.002Z,18.81
2017-10-18T14:29:30.575Z,18.74
2017-10-18T14:30:42.843Z,18.79
2017-10-18T14:31:55.414Z,18.78
2017-10-18T14:33:07.985Z,18.81
2017-10-18T14:34:20.573Z,18.79
2017-10-18T14:35:33.143Z,18.73
2017-10-18T14:36:45.696Z,18.81
2017-10-18T14:37:57.959Z,18.85
2017-10-18T14:39:10.220Z,18.86
2017-10-18T14:40:22.459Z,18.86
2017-10-18T14:41:35.030Z,18.88
2017-10-18T14:42:47.601Z,18.94
2017-10-18T14:43:59.874Z,18.91
2017-10-18T14:45:12.139Z,18.98
2017-10-18T14:46:24.714Z,18.92
2017-10-18T14:47:37.001Z,18.97
2017-10-18T14:48:49.253Z,18.98
2017-10-18T14:50:00.899Z,18.98
2017-10-18T14:51:13.489Z,19.07
2017-10-18T14:52:25.415Z,19.01
2017-10-18T14:53:37.665Z,19.08
2017-10-18T14:54:49.931Z,19.09
2017-10-18T14:56:02.526Z,19.11
2017-10-18T14:57:14.774Z,19.08
2017-10-18T14:58:27.361Z,19.07
2017-10-18T14:59:39.606Z,19.11
2017-10-18T15:00:52.084Z,19.15
2017-10-18T15:02:04.684Z,19.12
2017-10-18T15:03:17.276Z,19.11
2017-10-18T15:04:29.864Z,19.05
2017-10-18T15:05:42.116Z,18.94
2017-10-18T15:06:54.688Z,19.04
2017-10-18T15:08:07.259Z,18.98
2017-10-18T15:09:19.502Z,18.83
2017-10-18T15:10:31.767Z,18.85
2017-10-18T15:11:44.341Z,18.85
2017-10-18T15:12:56.916Z,18.74
2017-10-18T15:14:09.486Z,18.79
2017-10-18T15:15:21.732Z,18.73
2017-10-18T15:16:34.303Z,18.61
2017-10-18T15:17:46.565Z,18.58
2017-10-18T15:18:58.845Z,18.63
2017-10-18T15:20:11.089Z,18.46
2017-10-18T15:21:23.360Z,18.42
2017-10-18T15:22:35.931Z,18.37
2017-10-18T15:23:48.519Z,18.34
2017-10-18T15:25:00.775Z,18.15
2017-10-18T15:26:13.343Z,18.28
2017-10-18T15:27:25.913Z,18.15
2017-10-18T15:28:38.159Z,18.16
2017-10-18T15:29:50.730Z,18
2017-10-18T15:31:02.677Z,18
2017-10-18T15:32:15.246Z,17.94
2017-10-18T15:33:27.492Z,17.91
2017-10-18T15:34:39.415Z,17.79